createdAt,value
2019-05-11T00:00:35.149Z,1009.97
2019-05-11T00:01:35.099Z,1009.98
2019-05-11T00:02:35.069Z,1010.04
2019-05-11T00:03:35.038Z,1010.04
2019-05-11T00:04:35.009Z,1010.05
2019-05-11T00:05:35.000Z,1010.07
2019-05-11T00:06:34.944Z,1010.11
2019-05-11T00:07:34.912Z,1010.11
2019-05-11T00:08:34.882Z,1010.06
2019-05-11T00:09:35.673Z,1010.02
2019-05-11T00:10:35.675Z,1010.02
2019-05-11T00:11:34.808Z,1009.97
2019-05-11T00:12:34.764Z,1009.98
2019-05-11T00:13:34.735Z,1009.95
2019-05-11T00:14:34.697Z,1009.92
2019-05-11T00:15:34.659Z,1009.93
2019-05-11T00:16:34.656Z,1009.90
2019-05-11T00:17:34.600Z,1009.97
2019-05-11T00:18:34.567Z,1009.95
2019-05-11T00:19:34.788Z,1009.93
2019-05-11T00:20:34.512Z,1009.92
2019-05-11T00:21:34.500Z,1009.93
2019-05-11T00:22:35.103Z,1009.95
2019-05-11T00:23:34.410Z,1009.94
2019-05-11T00:24:34.377Z,1009.97
2019-05-11T00:25:34.383Z,1009.91
2019-05-11T00:26:34.347Z,1009.89
2019-05-11T00:27:34.316Z,1009.87
2019-05-11T00:28:34.377Z,1009.87
2019-05-11T00:29:34.228Z,1009.83
2019-05-11T00:30:34.206Z,1009.79
2019-05-11T00:31:41.597Z,1009.82
2019-05-11T00:32:34.127Z,1009.84
2019-05-11T00:33:34.193Z,1009.85
2019-05-11T00:34:34.068Z,1009.82
2019-05-11T00:35:34.036Z,1009.85
2019-05-11T00:36:34.029Z,1009.81
2019-05-11T00:37:33.968Z,1009.87
2019-05-11T00:38:33.939Z,1009.84
2019-05-11T00:39:33.942Z,1009.83
2019-05-11T00:40:33.874Z,1009.80
2019-05-11T00:41:33.864Z,1009.80
2019-05-11T00:42:33.820Z,1009.79
2019-05-11T00:43:33.787Z,1009.81
2019-05-11T00:44:33.767Z,1009.72
2019-05-11T00:45:34.681Z,1009.76
2019-05-11T00:46:33.717Z,1009.71
2019-05-11T00:47:33.656Z,1009.68
2019-05-11T00:48:33.627Z,1009.66
2019-05-11T00:49:33.669Z,1009.71
2019-05-11T00:50:39.294Z,1009.69
2019-05-11T00:51:33.563Z,1009.66
2019-05-11T00:52:33.548Z,1009.65
2019-05-11T00:53:33.492Z,1009.59
2019-05-11T00:54:33.448Z,1009.55
2019-05-11T00:55:33.410Z,1009.52
2019-05-11T00:56:33.406Z,1009.49
2019-05-11T00:57:33.347Z,1009.47
2019-05-11T00:58:33.317Z,1009.49
2019-05-11T00:59:33.295Z,1009.49
2019-05-11T01:00:33.291Z,1009.49
2019-05-11T01:01:33.245Z,1009.52
2019-05-11T01:02:33.187Z,1009.53
2019-05-11T01:03:33.181Z,1009.50
2019-05-11T01:04:33.156Z,1009.47
2019-05-11T01:05:33.087Z,1009.42
2019-05-11T01:06:33.129Z,1009.40
2019-05-11T01:07:33.030Z,1009.39
2019-05-11T01:08:32.998Z,1009.38
2019-05-11T01:09:32.972Z,1009.40
2019-05-11T01:10:41.639Z,1009.40
2019-05-11T01:11:32.929Z,1009.40
2019-05-11T01:12:32.955Z,1009.38
2019-05-11T01:13:34.849Z,1009.37
2019-05-11T01:14:34.322Z,1009.39
2019-05-11T01:15:34.760Z,1009.39
2019-05-11T01:16:34.393Z,1009.42
2019-05-11T01:17:34.777Z,1009.48
2019-05-11T01:18:34.724Z,1009.50
2019-05-11T01:19:35.365Z,1009.50
2019-05-11T01:20:33.199Z,1009.53
2019-05-11T01:21:33.107Z,1009.56
2019-05-11T01:22:36.460Z,1009.54
2019-05-11T01:23:33.104Z,1009.51
2019-05-11T01:24:32.666Z,1009.51
2019-05-11T01:25:32.504Z,1009.53
2019-05-11T01:26:34.497Z,1009.52
2019-05-11T01:27:33.109Z,1009.52
2019-05-11T01:28:33.616Z,1009.48
2019-05-11T01:29:35.396Z,1009.49
2019-05-11T01:30:32.484Z,1009.53
2019-05-11T01:31:34.106Z,1009.51
2019-05-11T01:32:33.606Z,1009.52
2019-05-11T01:33:36.119Z,1009.51
2019-05-11T01:34:35.617Z,1009.52
2019-05-11T01:35:33.296Z,1009.53
2019-05-11T01:36:35.393Z,1009.54
2019-05-11T01:37:32.253Z,1009.51
2019-05-11T01:38:33.217Z,1009.47
2019-05-11T01:39:32.804Z,1009.48
2019-05-11T01:40:37.248Z,1009.50
2019-05-11T01:41:34.664Z,1009.49
2019-05-11T01:42:33.715Z,1009.49
2019-05-11T01:43:31.918Z,1009.48
2019-05-11T01:44:32.096Z,1009.41
2019-05-11T01:45:32.734Z,1009.36
2019-05-11T01:46:32.798Z,1009.31
2019-05-11T01:47:40.728Z,1009.31
2019-05-11T01:48:31.734Z,1009.24
2019-05-11T01:49:31.696Z,1009.24
2019-05-11T01:50:31.659Z,1009.23
2019-05-11T01:51:31.628Z,1009.26
2019-05-11T01:52:31.624Z,1009.24
2019-05-11T01:53:31.569Z,1009.28
2019-05-11T01:54:31.538Z,1009.28
2019-05-11T01:55:31.503Z,1009.23
2019-05-11T01:56:31.472Z,1009.24
2019-05-11T01:57:31.479Z,1009.21
2019-05-11T01:58:31.408Z,1009.24
2019-05-11T01:59:31.394Z,1009.24
2019-05-11T02:00:31.341Z,1009.23
2019-05-11T02:01:31.315Z,1009.22
2019-05-11T02:02:31.311Z,1009.21
2019-05-11T02:03:31.245Z,1009.13
2019-05-11T02:04:31.222Z,1009.10
2019-05-11T02:05:31.184Z,1009.07
2019-05-11T02:06:31.169Z,1009.05
2019-05-11T02:07:31.148Z,1009.06
2019-05-11T02:08:31.091Z,1009.02
2019-05-11T02:09:31.053Z,1009.07
2019-05-11T02:10:31.026Z,1009.01
2019-05-11T02:11:31.003Z,1009.03
2019-05-11T02:12:30.980Z,1008.98
2019-05-11T02:13:30.927Z,1009.00
2019-05-11T02:14:30.892Z,1009.03
2019-05-11T02:15:30.863Z,1009.05
2019-05-11T02:16:30.833Z,1009.02
2019-05-11T02:17:30.832Z,1009.03
2019-05-11T02:18:30.765Z,1008.95
2019-05-11T02:19:30.751Z,1008.96
2019-05-11T02:20:30.701Z,1008.98
2019-05-11T02:21:30.693Z,1008.92
2019-05-11T02:22:30.666Z,1008.94
2019-05-11T02:23:30.603Z,1008.96
2019-05-11T02:24:30.570Z,1008.95
2019-05-11T02:25:30.551Z,1009.00
2019-05-11T02:26:30.507Z,1009.06
2019-05-11T02:27:30.501Z,1009.05
2019-05-11T02:28:30.451Z,1009.06
2019-05-11T02:29:30.411Z,1009.07
2019-05-11T02:30:30.377Z,1009.01
2019-05-11T02:31:30.352Z,1009.00
2019-05-11T02:32:30.331Z,1008.98
2019-05-11T02:33:30.279Z,1008.97
2019-05-11T02:34:30.246Z,1008.98
2019-05-11T02:35:30.230Z,1008.98
2019-05-11T02:36:30.185Z,1009.00
2019-05-11T02:37:30.174Z,1009.03
2019-05-11T02:38:30.113Z,1009.04
2019-05-11T02:39:30.094Z,1009.08
2019-05-11T02:40:30.059Z,1009.08
2019-05-11T02:41:36.344Z,1009.12
2019-05-11T02:42:29.991Z,1009.14
2019-05-11T02:43:29.984Z,1009.15
2019-05-11T02:44:29.935Z,1009.20
2019-05-11T02:45:29.892Z,1009.21
2019-05-11T02:46:29.867Z,1009.27
2019-05-11T02:47:29.842Z,1009.29
2019-05-11T02:48:29.825Z,1009.31
2019-05-11T02:49:29.768Z,1009.31
2019-05-11T02:50:29.735Z,1009.29
2019-05-11T02:51:29.698Z,1009.32
2019-05-11T02:52:29.714Z,1009.35
2019-05-11T02:53:29.757Z,1009.33
2019-05-11T02:54:29.601Z,1009.31
2019-05-11T02:55:29.571Z,1009.37
2019-05-11T02:56:29.537Z,1009.32
2019-05-11T02:57:29.504Z,1009.32
2019-05-11T02:58:29.498Z,1009.33
2019-05-11T02:59:30.079Z,1009.32
2019-05-11T03:00:29.405Z,1009.31
2019-05-11T03:01:29.381Z,1009.28
2019-05-11T03:02:29.346Z,1009.28
2019-05-11T03:03:29.385Z,1009.30
2019-05-11T03:04:29.286Z,1009.28
2019-05-11T03:05:29.264Z,1009.35
2019-05-11T03:06:29.210Z,1009.35
2019-05-11T03:07:29.186Z,1009.36
2019-05-11T03:08:29.187Z,1009.37
2019-05-11T03:09:29.128Z,1009.42
2019-05-11T03:10:29.087Z,1009.41
2019-05-11T03:11:29.055Z,1009.38
2019-05-11T03:12:29.023Z,1009.40
2019-05-11T03:13:29.039Z,1009.44
2019-05-11T03:14:28.961Z,1009.45
2019-05-11T03:15:28.935Z,1009.48
2019-05-11T03:16:28.902Z,1009.53
2019-05-11T03:17:28.950Z,1009.53
2019-05-11T03:18:28.869Z,1009.53
2019-05-11T03:19:28.797Z,1009.50
2019-05-11T03:20:28.775Z,1009.51
2019-05-11T03:21:28.842Z,1009.45
2019-05-11T03:22:28.705Z,1009.44
2019-05-11T03:23:28.704Z,1009.46
2019-05-11T03:24:28.642Z,1009.42
2019-05-11T03:25:28.632Z,1009.42
2019-05-11T03:26:28.615Z,1009.40
2019-05-11T03:27:28.573Z,1009.40
2019-05-11T03:28:28.548Z,1009.41
2019-05-11T03:29:28.489Z,1009.37
2019-05-11T03:30:28.463Z,1009.39
2019-05-11T03:31:28.433Z,1009.40
2019-05-11T03:32:28.441Z,1009.42
2019-05-11T03:33:28.413Z,1009.38
2019-05-11T03:34:28.334Z,1009.39
2019-05-11T03:35:28.309Z,1009.37
2019-05-11T03:36:28.270Z,1009.35
2019-05-11T03:37:28.235Z,1009.35
2019-05-11T03:38:28.228Z,1009.33
2019-05-11T03:39:28.171Z,1009.32
2019-05-11T03:40:28.148Z,1009.34
2019-05-11T03:41:28.115Z,1009.34
2019-05-11T03:42:28.076Z,1009.34
2019-05-11T03:43:28.072Z,1009.37
2019-05-11T03:44:28.012Z,1009.36
2019-05-11T03:45:27.984Z,1009.38
2019-05-11T03:46:27.949Z,1009.39
2019-05-11T03:47:27.931Z,1009.46
2019-05-11T03:48:27.925Z,1009.42
2019-05-11T03:49:27.859Z,1009.43
2019-05-11T03:50:27.834Z,1009.42
2019-05-11T03:51:27.801Z,1009.46
2019-05-11T03:52:27.763Z,1009.42
2019-05-11T03:53:27.766Z,1009.51
2019-05-11T03:54:27.700Z,1009.49
2019-05-11T03:55:27.680Z,1009.50
2019-05-11T03:56:27.637Z,1009.52
2019-05-11T03:57:27.612Z,1009.50
2019-05-11T03:58:27.585Z,1009.56
2019-05-11T03:59:27.575Z,1009.52
2019-05-11T04:00:27.545Z,1009.54
2019-05-11T04:01:27.495Z,1009.49
2019-05-11T04:02:27.452Z,1009.47
2019-05-11T04:03:27.440Z,1009.51
2019-05-11T04:04:27.419Z,1009.49
2019-05-11T04:05:27.367Z,1009.49
2019-05-11T04:06:27.341Z,1009.46
2019-05-11T04:07:27.300Z,1009.48
2019-05-11T04:08:27.289Z,1009.50
2019-05-11T04:09:27.267Z,1009.51
2019-05-11T04:10:27.238Z,1009.53
2019-05-11T04:11:27.184Z,1009.51
2019-05-11T04:12:34.551Z,1009.48
2019-05-11T04:13:27.145Z,1009.51
2019-05-11T04:14:27.128Z,1009.51
2019-05-11T04:15:27.077Z,1009.53
2019-05-11T04:16:27.030Z,1009.54
2019-05-11T04:17:27.037Z,1009.55
2019-05-11T04:18:26.982Z,1009.55
2019-05-11T04:19:26.960Z,1009.54
2019-05-11T04:20:26.934Z,1009.56
2019-05-11T04:21:26.910Z,1009.57
2019-05-11T04:22:26.847Z,1009.51
2019-05-11T04:23:26.816Z,1009.51
2019-05-11T04:24:26.824Z,1009.51
2019-05-11T04:25:26.764Z,1009.52
2019-05-11T04:26:26.730Z,1009.51
2019-05-11T04:27:26.691Z,1009.52
2019-05-11T04:28:26.738Z,1009.49
2019-05-11T04:29:26.682Z,1009.49
2019-05-11T04:30:26.689Z,1009.48
2019-05-11T04:31:26.577Z,1009.52
2019-05-11T04:32:26.547Z,1009.49
2019-05-11T04:33:26.513Z,1009.54
2019-05-11T04:34:26.510Z,1009.49
2019-05-11T04:35:26.460Z,1009.47
2019-05-11T04:36:26.424Z,1009.49
2019-05-11T04:37:26.416Z,1009.45
2019-05-11T04:38:26.370Z,1009.52
2019-05-11T04:39:26.365Z,1009.48
2019-05-11T04:40:26.314Z,1009.50
2019-05-11T04:41:26.300Z,1009.49
2019-05-11T04:42:26.254Z,1009.50
2019-05-11T04:43:26.220Z,1009.48
2019-05-11T04:44:26.212Z,1009.51
2019-05-11T04:45:26.157Z,1009.48
2019-05-11T04:46:26.125Z,1009.50
2019-05-11T04:47:26.098Z,1009.48
2019-05-11T04:48:26.071Z,1009.48
2019-05-11T04:49:26.060Z,1009.46
2019-05-11T04:50:26.007Z,1009.50
2019-05-11T04:51:25.984Z,1009.52
2019-05-11T04:52:25.950Z,1009.50
2019-05-11T04:53:25.970Z,1009.55
2019-05-11T04:54:25.923Z,1009.50
2019-05-11T04:55:25.857Z,1009.48
2019-05-11T04:56:25.832Z,1009.51
2019-05-11T04:57:25.801Z,1009.46
2019-05-11T04:58:25.787Z,1009.48
2019-05-11T04:59:25.771Z,1009.53
2019-05-11T05:00:25.725Z,1009.50
2019-05-11T05:01:25.679Z,1009.54
2019-05-11T05:02:27.326Z,1009.46
2019-05-11T05:03:39.746Z,1009.50
2019-05-11T05:04:25.617Z,1009.49
2019-05-11T05:05:25.563Z,1009.49
2019-05-11T05:06:25.535Z,1009.48
2019-05-11T05:07:25.509Z,1009.50
2019-05-11T05:08:26.457Z,1009.49
2019-05-11T05:09:25.540Z,1009.45
2019-05-11T05:10:25.416Z,1009.51
2019-05-11T05:11:30.393Z,1009.52
2019-05-11T05:12:25.355Z,1009.54
2019-05-11T05:13:29.301Z,1009.59
2019-05-11T05:14:25.298Z,1009.58
2019-05-11T05:15:25.295Z,1009.56
2019-05-11T05:16:25.247Z,1009.57
2019-05-11T05:17:25.208Z,1009.60
2019-05-11T05:18:25.181Z,1009.56
2019-05-11T05:19:25.152Z,1009.55
2019-05-11T05:20:25.145Z,1009.53
2019-05-11T05:21:25.114Z,1009.51
2019-05-11T05:22:27.964Z,1009.54
2019-05-11T05:23:25.033Z,1009.53
2019-05-11T05:24:25.001Z,1009.56
2019-05-11T05:25:25.005Z,1009.54
2019-05-11T05:26:24.948Z,1009.52
2019-05-11T05:27:24.921Z,1009.54
2019-05-11T05:28:24.892Z,1009.50
2019-05-11T05:29:24.856Z,1009.53
2019-05-11T05:30:24.863Z,1009.53
2019-05-11T05:31:24.801Z,1009.49
2019-05-11T05:32:24.778Z,1009.49
2019-05-11T05:33:24.763Z,1009.46
2019-05-11T05:34:24.724Z,1009.44
2019-05-11T05:35:24.723Z,1009.46
2019-05-11T05:36:24.736Z,1009.49
2019-05-11T05:37:24.822Z,1009.47
2019-05-11T05:38:24.635Z,1009.48
2019-05-11T05:39:24.591Z,1009.48
2019-05-11T05:40:24.572Z,1009.51
2019-05-11T05:41:24.518Z,1009.54
2019-05-11T05:42:24.499Z,1009.54
2019-05-11T05:43:28.349Z,1009.53
2019-05-11T05:44:27.531Z,1009.57
2019-05-11T05:45:24.431Z,1009.56
2019-05-11T05:46:24.377Z,1009.57
2019-05-11T05:47:31.172Z,1009.55
2019-05-11T05:48:24.325Z,1009.53
2019-05-11T05:49:24.295Z,1009.53
2019-05-11T05:50:25.290Z,1009.57
2019-05-11T05:51:24.236Z,1009.55
2019-05-11T05:52:24.209Z,1009.58
2019-05-11T05:53:24.184Z,1009.56
2019-05-11T05:54:24.151Z,1009.54
2019-05-11T05:55:24.151Z,1009.54
2019-05-11T05:56:24.098Z,1009.53
2019-05-11T05:57:24.075Z,1009.56
2019-05-11T05:58:24.076Z,1009.52
2019-05-11T05:59:24.024Z,1009.53
2019-05-11T06:00:24.011Z,1009.54
2019-05-11T06:01:23.960Z,1009.55
2019-05-11T06:02:23.949Z,1009.57
2019-05-11T06:03:23.916Z,1009.56
2019-05-11T06:04:23.875Z,1009.55
2019-05-11T06:05:23.875Z,1009.56
2019-05-11T06:06:23.845Z,1009.56
2019-05-11T06:07:23.840Z,1009.61
2019-05-11T06:08:23.835Z,1009.57
2019-05-11T06:09:23.761Z,1009.58
2019-05-11T06:10:23.740Z,1009.57
2019-05-11T06:11:23.707Z,1009.58
2019-05-11T06:12:23.670Z,1009.58
2019-05-11T06:13:23.635Z,1009.59
2019-05-11T06:14:23.629Z,1009.59
2019-05-11T06:15:23.631Z,1009.61
2019-05-11T06:16:23.567Z,1009.58
2019-05-11T06:17:23.547Z,1009.62
2019-05-11T06:18:23.535Z,1009.60
2019-05-11T06:19:23.496Z,1009.60
2019-05-11T06:20:23.508Z,1009.60
2019-05-11T06:21:24.438Z,1009.59
2019-05-11T06:22:23.426Z,1009.57
2019-05-11T06:23:23.402Z,1009.58
2019-05-11T06:24:23.378Z,1009.60
2019-05-11T06:25:23.402Z,1009.62
2019-05-11T06:26:23.379Z,1009.60
2019-05-11T06:27:23.359Z,1009.58
2019-05-11T06:28:23.363Z,1009.54
2019-05-11T06:29:23.220Z,1009.57
2019-05-11T06:30:23.193Z,1009.58
2019-05-11T06:31:23.196Z,1009.54
2019-05-11T06:32:23.145Z,1009.54
2019-05-11T06:33:23.107Z,1009.58
2019-05-11T06:34:23.082Z,1009.63
2019-05-11T06:35:23.057Z,1009.57
2019-05-11T06:36:23.054Z,1009.58
2019-05-11T06:37:23.032Z,1009.60
2019-05-11T06:38:22.989Z,1009.57
2019-05-11T06:39:22.951Z,1009.56
2019-05-11T06:40:22.943Z,1009.58
2019-05-11T06:41:22.922Z,1009.54
2019-05-11T06:42:22.872Z,1009.55
2019-05-11T06:43:22.847Z,1009.58
2019-05-11T06:44:22.816Z,1009.55
2019-05-11T06:45:22.789Z,1009.54
2019-05-11T06:46:22.788Z,1009.57
2019-05-11T06:47:22.737Z,1009.57
2019-05-11T06:48:22.711Z,1009.57
2019-05-11T06:49:22.684Z,1009.61
2019-05-11T06:50:22.655Z,1009.62
2019-05-11T06:51:22.651Z,1009.62
2019-05-11T06:52:22.599Z,1009.57
2019-05-11T06:53:22.575Z,1009.59
2019-05-11T06:54:22.561Z,1009.56
2019-05-11T06:55:22.526Z,1009.63
2019-05-11T06:56:22.532Z,1009.58
2019-05-11T06:57:22.482Z,1009.63
2019-05-11T06:58:22.444Z,1009.60
2019-05-11T06:59:22.426Z,1009.62
2019-05-11T07:00:22.400Z,1009.58
2019-05-11T07:01:22.399Z,1009.59
2019-05-11T07:02:22.341Z,1009.53
2019-05-11T07:03:22.322Z,1009.57
2019-05-11T07:04:22.290Z,1009.53
2019-05-11T07:05:22.267Z,1009.52
2019-05-11T07:06:25.753Z,1009.50
2019-05-11T07:07:22.208Z,1009.48
2019-05-11T07:08:22.182Z,1009.47
2019-05-11T07:09:22.189Z,1009.43
2019-05-11T07:10:22.140Z,1009.42
2019-05-11T07:11:22.144Z,1009.44
2019-05-11T07:12:22.224Z,1009.45
2019-05-11T07:13:22.062Z,1009.42
2019-05-11T07:14:22.035Z,1009.40
2019-05-11T07:15:22.009Z,1009.41
2019-05-11T07:16:22.022Z,1009.38
2019-05-11T07:17:21.966Z,1009.38
2019-05-11T07:18:21.931Z,1009.38
2019-05-11T07:19:21.913Z,1009.37
2019-05-11T07:20:21.883Z,1009.33
2019-05-11T07:21:21.881Z,1009.34
2019-05-11T07:22:21.842Z,1009.36
2019-05-11T07:23:21.807Z,1009.37
2019-05-11T07:24:21.792Z,1009.39
2019-05-11T07:25:21.766Z,1009.37
2019-05-11T07:26:21.757Z,1009.36
2019-05-11T07:27:21.722Z,1009.32
2019-05-11T07:28:21.687Z,1009.34
2019-05-11T07:29:21.673Z,1009.39
2019-05-11T07:30:21.692Z,1009.40
2019-05-11T07:31:21.638Z,1009.41
2019-05-11T07:32:25.783Z,1009.41
2019-05-11T07:33:21.566Z,1009.40
2019-05-11T07:34:21.543Z,1009.41
2019-05-11T07:35:21.518Z,1009.45
2019-05-11T07:36:21.487Z,1009.42
2019-05-11T07:37:24.256Z,1009.42
2019-05-11T07:38:21.438Z,1009.41
2019-05-11T07:39:21.410Z,1009.39
2019-05-11T07:40:21.397Z,1009.39
2019-05-11T07:41:21.371Z,1009.34
2019-05-11T07:42:21.369Z,1009.35
2019-05-11T07:43:21.319Z,1009.34
2019-05-11T07:44:34.964Z,1009.32
2019-05-11T07:45:21.268Z,1009.30
2019-05-11T07:46:21.247Z,1009.32
2019-05-11T07:47:21.252Z,1009.31
2019-05-11T07:48:21.199Z,1009.27
2019-05-11T07:49:23.413Z,1009.29
2019-05-11T07:50:21.144Z,1009.24
2019-05-11T07:51:21.125Z,1009.24
2019-05-11T07:52:21.116Z,1009.24
2019-05-11T07:53:28.790Z,1009.23
2019-05-11T07:54:21.164Z,1009.22
2019-05-11T07:55:21.020Z,1009.20
2019-05-11T07:56:20.987Z,1009.23
2019-05-11T07:57:20.988Z,1009.24
2019-05-11T07:58:20.942Z,1009.22
2019-05-11T07:59:20.911Z,1009.27
2019-05-11T08:00:20.946Z,1009.24
2019-05-11T08:01:20.871Z,1009.21
2019-05-11T08:02:20.863Z,1009.27
2019-05-11T08:03:20.813Z,1009.25
2019-05-11T08:04:21.714Z,1009.25
2019-05-11T08:05:20.775Z,1009.25
2019-05-11T08:06:20.741Z,1009.24
2019-05-11T08:07:20.734Z,1009.26
2019-05-11T08:08:20.700Z,1009.26
2019-05-11T08:09:20.667Z,1009.27
2019-05-11T08:10:20.682Z,1009.24
2019-05-11T08:11:20.616Z,1009.23
2019-05-11T08:12:20.627Z,1009.23
2019-05-11T08:13:20.572Z,1009.21
2019-05-11T08:14:20.551Z,1009.22
2019-05-11T08:15:20.519Z,1009.25
2019-05-11T08:16:20.498Z,1009.23
2019-05-11T08:17:20.508Z,1009.21
2019-05-11T08:18:20.454Z,1009.24
2019-05-11T08:19:20.433Z,1009.26
2019-05-11T08:20:20.404Z,1009.21
2019-05-11T08:21:20.433Z,1009.22
2019-05-11T08:22:22.873Z,1009.23
2019-05-11T08:23:20.337Z,1009.26
2019-05-11T08:24:20.314Z,1009.28
2019-05-11T08:25:20.295Z,1009.26
2019-05-11T08:26:20.277Z,1009.26
2019-05-11T08:27:20.280Z,1009.26
2019-05-11T08:28:20.256Z,1009.30
2019-05-11T08:29:20.201Z,1009.25
2019-05-11T08:30:20.182Z,1009.30
2019-05-11T08:31:20.169Z,1009.24
2019-05-11T08:32:20.159Z,1009.29
2019-05-11T08:33:20.117Z,1009.27
2019-05-11T08:34:20.095Z,1009.28
2019-05-11T08:35:20.072Z,1009.30
2019-05-11T08:36:20.047Z,1009.32
2019-05-11T08:37:20.053Z,1009.33
2019-05-11T08:38:20.005Z,1009.33
2019-05-11T08:39:19.994Z,1009.25
2019-05-11T08:40:19.963Z,1009.29
2019-05-11T08:41:19.939Z,1009.29
2019-05-11T08:42:19.917Z,1009.32
2019-05-11T08:43:19.931Z,1009.31
2019-05-11T08:44:19.878Z,1009.34
2019-05-11T08:45:24.020Z,1009.34
2019-05-11T08:46:19.835Z,1009.33
2019-05-11T08:47:19.887Z,1009.27
2019-05-11T08:48:19.814Z,1009.27
2019-05-11T08:49:19.783Z,1009.29
2019-05-11T08:50:19.765Z,1009.29
2019-05-11T08:51:19.728Z,1009.34
2019-05-11T08:52:19.710Z,1009.30
2019-05-11T08:53:19.711Z,1009.35
2019-05-11T08:54:19.667Z,1009.27
2019-05-11T08:55:20.304Z,1009.29
2019-05-11T08:56:19.623Z,1009.30
2019-05-11T08:57:19.611Z,1009.25
2019-05-11T08:58:19.750Z,1009.25
2019-05-11T08:59:19.557Z,1009.28
2019-05-11T09:00:19.544Z,1009.24
2019-05-11T09:01:19.525Z,1009.26
2019-05-11T09:02:19.498Z,1009.23
2019-05-11T09:03:19.510Z,1009.25
2019-05-11T09:04:19.456Z,1009.25
2019-05-11T09:05:19.456Z,1009.24
2019-05-11T09:06:19.426Z,1009.25
2019-05-11T09:07:19.402Z,1009.27
2019-05-11T09:08:19.399Z,1009.22
2019-05-11T09:09:19.349Z,1009.28
2019-05-11T09:10:19.405Z,1009.26
2019-05-11T09:11:19.372Z,1009.30
2019-05-11T09:12:19.290Z,1009.27
2019-05-11T09:13:19.298Z,1009.30
2019-05-11T09:14:19.242Z,1009.29
2019-05-11T09:15:32.465Z,1009.28
2019-05-11T09:16:19.298Z,1009.31
2019-05-11T09:17:19.192Z,1009.31
2019-05-11T09:18:19.181Z,1009.28
2019-05-11T09:19:19.140Z,1009.31
2019-05-11T09:20:19.215Z,1009.35
2019-05-11T09:21:19.289Z,1009.32
2019-05-11T09:22:19.176Z,1009.31
2019-05-11T09:23:33.575Z,1009.32
2019-05-11T09:24:19.107Z,1009.34
2019-05-11T09:25:19.007Z,1009.34
2019-05-11T09:26:18.985Z,1009.32
2019-05-11T09:27:18.969Z,1009.32
2019-05-11T09:28:18.969Z,1009.35
2019-05-11T09:29:18.936Z,1009.36
2019-05-11T09:30:18.897Z,1009.32
2019-05-11T09:31:19.022Z,1009.32
2019-05-11T09:32:18.859Z,1009.26
2019-05-11T09:33:20.732Z,1009.30
2019-05-11T09:34:18.832Z,1009.24
2019-05-11T09:35:19.203Z,1009.29
2019-05-11T09:36:18.844Z,1009.25
2019-05-11T09:37:18.748Z,1009.28
2019-05-11T09:38:18.757Z,1009.29
2019-05-11T09:39:18.707Z,1009.29
2019-05-11T09:40:18.700Z,1009.30
2019-05-11T09:41:18.682Z,1009.31
2019-05-11T09:42:18.638Z,1009.29
2019-05-11T09:43:18.642Z,1009.33
2019-05-11T09:44:18.596Z,1009.33
2019-05-11T09:45:18.972Z,1009.31
2019-05-11T09:46:18.985Z,1009.32
2019-05-11T09:47:19.052Z,1009.32
2019-05-11T09:48:18.535Z,1009.31
2019-05-11T09:49:18.714Z,1009.32
2019-05-11T09:50:18.519Z,1009.33
2019-05-11T09:51:18.697Z,1009.31
2019-05-11T09:52:18.527Z,1009.30
2019-05-11T09:53:18.404Z,1009.34
2019-05-11T09:54:18.455Z,1009.34
2019-05-11T09:55:19.010Z,1009.37
2019-05-11T09:56:18.623Z,1009.40
2019-05-11T09:57:18.574Z,1009.38
2019-05-11T09:58:19.764Z,1009.35
2019-05-11T09:59:18.294Z,1009.33
2019-05-11T10:00:18.244Z,1009.33
2019-05-11T10:01:18.560Z,1009.29
2019-05-11T10:02:20.959Z,1009.32
2019-05-11T10:03:18.858Z,1009.29
2019-05-11T10:04:18.285Z,1009.28
2019-05-11T10:05:18.969Z,1009.33
2019-05-11T10:06:18.929Z,1009.31
2019-05-11T10:07:18.299Z,1009.26
2019-05-11T10:08:18.389Z,1009.28
2019-05-11T10:09:19.247Z,1009.28
2019-05-11T10:10:18.840Z,1009.30
2019-05-11T10:11:18.979Z,1009.30
2019-05-11T10:12:18.227Z,1009.31
2019-05-11T10:13:18.571Z,1009.34
2019-05-11T10:14:18.784Z,1009.34
2019-05-11T10:15:18.736Z,1009.31
2019-05-11T10:16:18.169Z,1009.33
2019-05-11T10:17:18.302Z,1009.34
2019-05-11T10:18:18.630Z,1009.34
2019-05-11T10:19:18.085Z,1009.35
2019-05-11T10:20:18.322Z,1009.37
2019-05-11T10:21:18.967Z,1009.35
2019-05-11T10:22:18.562Z,1009.33
2019-05-11T10:23:18.558Z,1009.32
2019-05-11T10:24:17.916Z,1009.29
2019-05-11T10:25:18.281Z,1009.30
2019-05-11T10:26:18.695Z,1009.30
2019-05-11T10:27:18.922Z,1009.30
2019-05-11T10:28:17.986Z,1009.29
2019-05-11T10:29:18.314Z,1009.29
2019-05-11T10:30:18.599Z,1009.28
2019-05-11T10:31:18.233Z,1009.30
2019-05-11T10:32:18.267Z,1009.26
2019-05-11T10:33:18.822Z,1009.29
2019-05-11T10:34:18.106Z,1009.30
2019-05-11T10:35:18.399Z,1009.32
2019-05-11T10:36:18.854Z,1009.30
2019-05-11T10:37:17.773Z,1009.29
2019-05-11T10:38:17.945Z,1009.24
2019-05-11T10:39:18.603Z,1009.27
2019-05-11T10:40:18.984Z,1009.31
2019-05-11T10:41:18.083Z,1009.23
2019-05-11T10:42:17.989Z,1009.24
2019-05-11T10:43:18.367Z,1009.29
2019-05-11T10:44:18.749Z,1009.25
2019-05-11T10:45:18.036Z,1009.23
2019-05-11T10:46:22.980Z,1009.21
2019-05-11T10:47:18.479Z,1009.22
2019-05-11T10:48:17.831Z,1009.25
2019-05-11T10:49:18.465Z,1009.23
2019-05-11T10:50:18.762Z,1009.20
2019-05-11T10:51:18.327Z,1009.22
2019-05-11T10:52:17.984Z,1009.22
2019-05-11T10:53:18.490Z,1009.21
2019-05-11T10:54:18.705Z,1009.23
2019-05-11T10:55:19.309Z,1009.23
2019-05-11T10:56:17.850Z,1009.22
2019-05-11T10:57:18.886Z,1009.21
2019-05-11T10:58:18.322Z,1009.23
2019-05-11T10:59:18.729Z,1009.25
2019-05-11T11:00:17.793Z,1009.22
2019-05-11T11:01:18.233Z,1009.22
2019-05-11T11:02:18.516Z,1009.26
2019-05-11T11:03:17.880Z,1009.25
2019-05-11T11:04:18.402Z,1009.24
2019-05-11T11:05:18.773Z,1009.27
2019-05-11T11:06:18.864Z,1009.24
2019-05-11T11:07:19.317Z,1009.24
2019-05-11T11:08:18.530Z,1009.21
2019-05-11T11:09:17.802Z,1009.22
2019-05-11T11:10:18.140Z,1009.22
2019-05-11T11:11:18.539Z,1009.23
2019-05-11T11:12:18.704Z,1009.21
2019-05-11T11:13:18.749Z,1009.23
2019-05-11T11:14:18.096Z,1009.21
2019-05-11T11:15:18.324Z,1009.21
2019-05-11T11:16:34.669Z,1009.22
2019-05-11T11:17:18.928Z,1009.21
2019-05-11T11:18:18.767Z,1009.21
2019-05-11T11:19:18.323Z,1009.23
2019-05-11T11:20:18.632Z,1009.21
2019-05-11T11:21:22.400Z,1009.21
2019-05-11T11:22:35.454Z,1009.21
2019-05-11T11:23:17.727Z,1009.19
2019-05-11T11:24:17.955Z,1009.20
2019-05-11T11:25:17.998Z,1009.20
2019-05-11T11:26:18.407Z,1009.21
2019-05-11T11:27:18.088Z,1009.28
2019-05-11T11:28:17.551Z,1009.27
2019-05-11T11:29:17.858Z,1009.26
2019-05-11T11:30:18.115Z,1009.25
2019-05-11T11:31:18.390Z,1009.28
2019-05-11T11:32:18.264Z,1009.25
2019-05-11T11:33:18.210Z,1009.27
2019-05-11T11:34:18.578Z,1009.26
2019-05-11T11:35:18.505Z,1009.24
2019-05-11T11:36:17.950Z,1009.25
2019-05-11T11:37:17.525Z,1009.27
2019-05-11T11:38:18.055Z,1009.25
2019-05-11T11:39:16.125Z,1009.23
2019-05-11T11:40:17.725Z,1009.25
2019-05-11T11:41:17.878Z,1009.27
2019-05-11T11:42:17.898Z,1009.24
2019-05-11T11:43:18.038Z,1009.23
2019-05-11T11:44:18.321Z,1009.26
2019-05-11T11:45:18.119Z,1009.26
2019-05-11T11:46:15.976Z,1009.27
2019-05-11T11:47:20.981Z,1009.22
2019-05-11T11:48:15.984Z,1009.25
2019-05-11T11:49:15.945Z,1009.25
2019-05-11T11:50:17.804Z,1009.23
2019-05-11T11:51:18.411Z,1009.25
2019-05-11T11:52:15.848Z,1009.25
2019-05-11T11:53:15.825Z,1009.25
2019-05-11T11:54:17.962Z,1009.29
2019-05-11T11:55:15.793Z,1009.26
2019-05-11T11:56:15.743Z,1009.30
2019-05-11T11:57:18.060Z,1009.27
2019-05-11T11:58:20.123Z,1009.32
2019-05-11T11:59:17.684Z,1009.32
2019-05-11T12:00:18.125Z,1009.35
2019-05-11T12:01:15.658Z,1009.31
2019-05-11T12:02:15.617Z,1009.39
2019-05-11T12:03:15.586Z,1009.36
2019-05-11T12:04:15.568Z,1009.32
2019-05-11T12:05:17.538Z,1009.31